createdAt,value
2023-01-28T00:01:39.364Z,91.20
2023-01-28T00:04:06.261Z,91.20
2023-01-28T00:06:33.090Z,91.00
2023-01-28T00:09:00.608Z,91.10
2023-01-28T00:11:27.404Z,91.00
2023-01-28T00:13:54.752Z,91.10
2023-01-28T00:16:27.203Z,91.30
2023-01-28T00:18:54.855Z,91.30
2023-01-28T00:21:22.183Z,91.40
2023-01-28T00:23:54.251Z,91.60
2023-01-28T00:26:21.994Z,91.70
2023-01-28T00:28:48.869Z,91.60
2023-01-28T00:31:18.796Z,91.70
2023-01-28T00:33:47.426Z,91.90
2023-01-28T00:36:15.071Z,92.10
2023-01-28T00:38:44.860Z,92.10
2023-01-28T00:41:14.594Z,92.10
2023-01-28T00:43:42.550Z,92.20
2023-01-28T00:46:10.850Z,92.20
2023-01-28T00:48:38.650Z,92.20
2023-01-28T00:51:06.026Z,92.10
2023-01-28T00:53:34.820Z,92.00
2023-01-28T00:56:01.919Z,92.00
2023-01-28T00:58:29.218Z,91.90
2023-01-28T01:00:55.945Z,92.00
2023-01-28T01:03:22.704Z,91.90
2023-01-28T01:05:49.415Z,91.90
2023-01-28T01:08:16.141Z,91.60
2023-01-28T01:10:42.919Z,91.20
2023-01-28T01:13:10.196Z,91.10
2023-01-28T01:15:36.935Z,90.80
2023-01-28T01:18:04.017Z,90.70
2023-01-28T01:20:33.426Z,90.10
2023-01-28T01:23:00.237Z,90.20
2023-01-28T01:25:27.208Z,90.40
2023-01-28T01:27:54.927Z,90.40
2023-01-28T01:30:22.488Z,90.30
2023-01-28T01:32:49.536Z,90.10
2023-01-28T01:35:16.602Z,90.00
2023-01-28T01:37:44.937Z,89.80
2023-01-28T01:40:12.368Z,89.80
2023-01-28T01:42:39.151Z,90.00
2023-01-28T01:45:14.719Z,90.00
2023-01-28T01:47:57.989Z,89.80
2023-01-28T01:50:36.355Z,89.60
2023-01-28T01:53:09.375Z,89.70
2023-01-28T01:55:39.246Z,89.80
2023-01-28T01:58:11.177Z,90.00
2023-01-28T02:00:39.377Z,90.10
2023-01-28T02:03:06.630Z,90.50
2023-01-28T02:05:33.493Z,90.70
2023-01-28T02:08:20.560Z,90.80
2023-01-28T02:10:52.940Z,90.80
2023-01-28T02:13:22.558Z,90.90
2023-01-28T02:15:49.689Z,90.90
2023-01-28T02:18:16.663Z,90.90
2023-01-28T02:21:02.407Z,90.60
2023-01-28T02:23:50.693Z,90.60
2023-01-28T02:26:42.373Z,90.70
2023-01-28T02:29:41.764Z,90.70
2023-01-28T02:32:17.479Z,90.60
2023-01-28T02:35:04.266Z,90.40
2023-01-28T02:37:51.148Z,90.30
2023-01-28T02:40:27.030Z,90.30
2023-01-28T02:42:53.782Z,90.40
2023-01-28T02:45:51.284Z,90.20
2023-01-28T02:48:22.022Z,90.20
2023-01-28T02:51:03.219Z,90.40
2023-01-28T02:53:46.500Z,90.50
2023-01-28T02:56:51.853Z,90.50
2023-01-28T02:59:42.350Z,90.40
2023-01-28T03:02:41.492Z,90.50
2023-01-28T03:05:26.252Z,90.50
2023-01-28T03:07:53.579Z,90.20
2023-01-28T03:10:23.858Z,90.10
2023-01-28T03:13:13.034Z,90.00
2023-01-28T03:16:07.364Z,89.90
2023-01-28T03:19:02.835Z,89.80
2023-01-28T03:21:53.715Z,89.70
2023-01-28T03:24:48.867Z,89.90
2023-01-28T03:27:40.782Z,89.80
2023-01-28T03:30:42.403Z,89.60
2023-01-28T03:33:28.815Z,89.70
2023-01-28T03:36:14.148Z,89.70
2023-01-28T03:38:48.458Z,89.70
2023-01-28T03:41:22.380Z,90.00
2023-01-28T03:43:50.302Z,90.10
2023-01-28T03:46:18.454Z,90.00
2023-01-28T03:48:45.874Z,90.00
2023-01-28T03:51:12.955Z,90.00
2023-01-28T03:53:40.360Z,90.10
2023-01-28T03:56:08.790Z,90.10
2023-01-28T03:58:56.419Z,90.20
2023-01-28T04:01:23.454Z,90.20
2023-01-28T04:03:50.194Z,90.30
2023-01-28T04:06:16.932Z,90.20
2023-01-28T04:08:48.384Z,90.30
2023-01-28T04:11:19.864Z,90.20
2023-01-28T04:13:47.966Z,90.20
2023-01-28T04:16:16.813Z,90.10
2023-01-28T04:18:44.926Z,90.10
2023-01-28T04:21:12.397Z,90.10
2023-01-28T04:23:39.195Z,90.20
2023-01-28T04:26:05.969Z,90.20
2023-01-28T04:28:32.804Z,90.40
2023-01-28T04:30:59.577Z,90.50
2023-01-28T04:33:26.347Z,90.60
2023-01-28T04:35:53.137Z,90.80
2023-01-28T04:38:19.848Z,91.00
2023-01-28T04:40:50.119Z,90.90
2023-01-28T04:43:16.913Z,90.90
2023-01-28T04:45:44.038Z,91.00
2023-01-28T04:48:10.878Z,91.10
2023-01-28T04:50:37.649Z,91.30
2023-01-28T04:53:04.406Z,91.30
2023-01-28T04:55:31.293Z,91.40
2023-01-28T04:57:58.059Z,91.60
2023-01-28T05:00:24.841Z,91.60
2023-01-28T05:02:51.582Z,91.60
2023-01-28T05:05:18.604Z,91.50
2023-01-28T05:07:51.257Z,91.50
2023-01-28T05:10:19.404Z,91.10
2023-01-28T05:12:48.436Z,90.90
2023-01-28T05:15:16.906Z,90.80
2023-01-28T05:17:44.398Z,90.40
2023-01-28T05:20:13.729Z,90.10
2023-01-28T05:22:41.155Z,89.70
2023-01-28T05:25:08.543Z,89.60
2023-01-28T05:27:35.432Z,89.50
2023-01-28T05:30:02.201Z,89.30
2023-01-28T05:32:29.222Z,89.20
2023-01-28T05:34:56.071Z,89.30
2023-01-28T05:37:22.797Z,89.30
2023-01-28T05:39:49.523Z,89.30
2023-01-28T05:42:18.577Z,89.30
2023-01-28T05:44:45.294Z,89.40
2023-01-28T05:47:12.036Z,89.50
2023-01-28T05:49:38.805Z,89.50
2023-01-28T05:52:05.500Z,89.50
2023-01-28T05:54:32.223Z,89.70
2023-01-28T05:56:58.970Z,89.60
2023-01-28T05:59:25.743Z,89.60
2023-01-28T06:01:52.471Z,89.50
2023-01-28T06:04:20.154Z,89.50
2023-01-28T06:06:46.944Z,89.50
2023-01-28T06:09:13.669Z,89.20
2023-01-28T06:11:40.475Z,89.30
2023-01-28T06:14:07.377Z,89.50
2023-01-28T06:16:34.142Z,89.80
2023-01-28T06:19:01.097Z,89.90
2023-01-28T06:21:30.033Z,89.90
2023-01-28T06:23:57.031Z,90.20
2023-01-28T06:26:24.265Z,90.10
2023-01-28T06:28:50.981Z,89.70
2023-01-28T06:31:17.741Z,90.00
2023-01-28T06:33:44.665Z,90.30
2023-01-28T06:36:11.365Z,90.40
2023-01-28T06:38:38.243Z,90.60
2023-01-28T06:41:05.125Z,90.60
2023-01-28T06:43:31.926Z,90.70
2023-01-28T06:45:59.215Z,90.70
2023-01-28T06:48:26.964Z,90.90
2023-01-28T06:50:53.997Z,91.00
2023-01-28T06:53:21.247Z,91.30
2023-01-28T06:55:48.077Z,91.00
2023-01-28T06:58:15.091Z,90.90
2023-01-28T07:00:41.876Z,90.80
2023-01-28T07:03:08.626Z,90.80
2023-01-28T07:05:35.367Z,90.90
2023-01-28T07:08:02.637Z,91.00
2023-01-28T07:10:30.031Z,91.10
2023-01-28T07:12:56.782Z,91.60
2023-01-28T07:15:23.608Z,91.60
2023-01-28T07:17:50.443Z,91.50
2023-01-28T07:20:17.929Z,91.50
2023-01-28T07:22:45.408Z,91.40
2023-01-28T07:25:13.863Z,91.10
2023-01-28T07:27:45.609Z,90.90
2023-01-28T07:30:12.890Z,91.10
2023-01-28T07:32:39.768Z,91.30
2023-01-28T07:35:07.305Z,91.30
2023-01-28T07:37:34.181Z,91.40
2023-01-28T07:40:00.896Z,91.50
2023-01-28T07:42:27.615Z,91.80
2023-01-28T07:44:54.436Z,91.80
2023-01-28T07:47:21.374Z,91.80
2023-01-28T07:49:48.427Z,92.00
2023-01-28T07:52:15.284Z,91.90
2023-01-28T07:54:42.027Z,92.00
2023-01-28T07:57:09.848Z,91.90
2023-01-28T07:59:38.988Z,91.70
2023-01-28T08:02:06.060Z,91.70
2023-01-28T08:04:33.039Z,91.60
2023-01-28T08:06:59.827Z,91.50
2023-01-28T08:09:26.635Z,91.50
2023-01-28T08:11:53.408Z,91.50
2023-01-28T08:14:20.138Z,91.50
2023-01-28T08:16:46.871Z,91.50
2023-01-28T08:19:13.695Z,91.20
2023-01-28T08:21:40.615Z,91.50
2023-01-28T08:24:07.643Z,91.20
2023-01-28T08:26:34.368Z,91.10
2023-01-28T08:29:01.108Z,91.10
2023-01-28T08:31:29.445Z,91.00
2023-01-28T08:33:56.264Z,90.90
2023-01-28T08:36:23.377Z,90.90
2023-01-28T08:38:56.774Z,91.10
2023-01-28T08:41:23.701Z,90.90
2023-01-28T08:43:50.638Z,90.70
2023-01-28T08:46:17.498Z,90.70
2023-01-28T08:48:44.264Z,90.80
2023-01-28T08:51:11.019Z,90.90
2023-01-28T08:53:37.838Z,90.70
2023-01-28T08:56:04.856Z,90.80
2023-01-28T08:58:31.590Z,90.90
2023-01-28T09:00:58.294Z,90.90
2023-01-28T09:03:25.433Z,90.90
2023-01-28T09:05:52.198Z,90.80
2023-01-28T09:08:18.947Z,90.70
2023-01-28T09:10:45.674Z,90.70
2023-01-28T09:13:15.208Z,90.70
2023-01-28T09:15:42.549Z,90.70
2023-01-28T09:18:09.689Z,90.80
2023-01-28T09:20:37.540Z,90.60
2023-01-28T09:23:04.469Z,90.80
2023-01-28T09:25:31.330Z,90.70
2023-01-28T09:27:58.426Z,90.70
2023-01-28T09:30:25.649Z,90.80
2023-01-28T09:32:53.712Z,90.90
2023-01-28T09:35:21.061Z,90.90
2023-01-28T09:37:48.770Z,90.90
2023-01-28T09:40:24.300Z,90.90
2023-01-28T09:43:13.813Z,90.90
2023-01-28T09:45:47.654Z,90.90
2023-01-28T09:48:32.686Z,90.80
2023-01-28T09:51:01.476Z,90.60
2023-01-28T09:53:35.214Z,90.50
2023-01-28T09:56:13.048Z,90.40
2023-01-28T09:58:42.365Z,90.50
2023-01-28T10:01:33.936Z,90.70
2023-01-28T10:04:16.443Z,90.60
2023-01-28T10:06:55.943Z,90.80
2023-01-28T10:09:38.264Z,90.80
2023-01-28T10:12:16.257Z,90.80
2023-01-28T10:15:24.367Z,91.20
2023-01-28T10:18:07.223Z,91.20
2023-01-28T10:20:49.482Z,91.20
2023-01-28T10:23:23.985Z,91.30
2023-01-28T10:25:50.766Z,91.40
2023-01-28T10:28:21.988Z,91.70
2023-01-28T10:30:49.810Z,91.60
2023-01-28T10:33:35.602Z,91.60
2023-01-28T10:36:02.898Z,91.50
2023-01-28T10:38:31.018Z,91.60
2023-01-28T10:41:01.654Z,91.60
2023-01-28T10:43:37.579Z,91.50
2023-01-28T10:46:18.225Z,91.30
2023-01-28T10:48:50.806Z,91.30
2023-01-28T10:51:19.788Z,91.10
2023-01-28T10:53:46.772Z,91.10
2023-01-28T10:56:23.967Z,91.20
2023-01-28T10:59:04.456Z,91.30
2023-01-28T11:02:04.862Z,91.10
2023-01-28T11:04:34.078Z,91.10
2023-01-28T11:07:01.913Z,91.10
2023-01-28T11:09:31.792Z,90.90
2023-01-28T11:12:09.960Z,91.00
2023-01-28T11:14:36.698Z,91.00
2023-01-28T11:17:03.665Z,90.70
2023-01-28T11:19:37.202Z,91.00
2023-01-28T11:22:04.072Z,91.00
2023-01-28T11:24:33.632Z,91.20
2023-01-28T11:27:13.301Z,91.30
2023-01-28T11:29:40.780Z,91.30
2023-01-28T11:32:20.367Z,91.40
2023-01-28T11:34:52.790Z,91.60
2023-01-28T11:37:22.886Z,91.70
2023-01-28T11:40:00.370Z,91.40
2023-01-28T11:42:27.429Z,91.50
2023-01-28T11:44:54.598Z,91.60
2023-01-28T11:47:36.714Z,91.90
2023-01-28T11:50:22.509Z,92.00
2023-01-28T11:53:06.766Z,92.00
2023-01-28T11:55:45.856Z,92.10
2023-01-28T11:58:30.682Z,92.10
2023-01-28T12:01:10.542Z,92.00
2023-01-28T12:04:03.960Z,92.10
2023-01-28T12:07:03.455Z,92.40
2023-01-28T12:09:42.833Z,92.40
2023-01-28T12:12:12.369Z,92.40
2023-01-28T12:15:03.919Z,92.30
2023-01-28T12:17:31.085Z,92.30
2023-01-28T12:20:27.142Z,92.10
2023-01-28T12:23:15.736Z,91.90
2023-01-28T12:25:51.585Z,91.80
2023-01-28T12:28:30.761Z,91.90
2023-01-28T12:31:51.775Z,91.80
2023-01-28T12:34:43.266Z,91.80
2023-01-28T12:37:34.294Z,91.60
2023-01-28T12:40:09.812Z,91.60
2023-01-28T12:42:42.531Z,91.50
2023-01-28T12:45:20.621Z,91.50
2023-01-28T12:47:54.096Z,91.40
2023-01-28T12:50:45.149Z,91.40
2023-01-28T12:53:31.069Z,91.30
2023-01-28T12:56:17.338Z,90.80
2023-01-28T12:58:58.764Z,90.60
2023-01-28T13:01:34.706Z,90.70
2023-01-28T13:04:16.056Z,90.70
2023-01-28T13:06:50.904Z,90.20
2023-01-28T13:09:23.895Z,89.10
2023-01-28T13:11:54.484Z,88.80
2023-01-28T13:14:28.243Z,88.90
2023-01-28T13:16:55.048Z,88.40
2023-01-28T13:19:25.275Z,88.40
2023-01-28T13:21:52.412Z,88.30
2023-01-28T13:24:22.677Z,88.50
2023-01-28T13:26:54.594Z,88.30
2023-01-28T13:29:24.314Z,88.30
2023-01-28T13:31:54.526Z,87.90
2023-01-28T13:34:33.763Z,87.60
2023-01-28T13:37:05.897Z,87.50
2023-01-28T13:39:35.294Z,87.90
2023-01-28T13:42:26.388Z,87.70
2023-01-28T13:44:53.776Z,87.80
2023-01-28T13:47:43.323Z,87.80
2023-01-28T13:50:18.207Z,87.80
2023-01-28T13:52:54.932Z,87.10
2023-01-28T13:55:41.651Z,87.20
2023-01-28T13:58:36.327Z,87.60
2023-01-28T14:01:21.690Z,87.70
2023-01-28T14:04:09.596Z,88.00
2023-01-28T14:06:44.195Z,87.80
2023-01-28T14:09:13.919Z,87.70
2023-01-28T14:12:16.787Z,87.50
2023-01-28T14:15:13.108Z,87.50
2023-01-28T14:17:49.714Z,87.60
2023-01-28T14:20:16.806Z,87.40
2023-01-28T14:22:44.266Z,87.30
2023-01-28T14:25:27.869Z,87.60
2023-01-28T14:27:54.890Z,87.50
2023-01-28T14:30:36.261Z,86.90
2023-01-28T14:33:03.302Z,87.10
2023-01-28T14:35:33.193Z,86.70
2023-01-28T14:38:05.899Z,86.40
2023-01-28T14:40:36.477Z,86.50
2023-01-28T14:43:07.194Z,86.50
2023-01-28T14:45:46.636Z,86.30
2023-01-28T14:48:31.958Z,86.20
2023-01-28T14:51:17.107Z,86.60
2023-01-28T14:54:03.332Z,86.30
2023-01-28T14:56:38.342Z,86.20
2023-01-28T14:59:22.047Z,86.40
2023-01-28T15:01:49.654Z,86.40
2023-01-28T15:04:31.391Z,86.30
2023-01-28T15:07:12.560Z,86.20
2023-01-28T15:09:39.622Z,86.30
2023-01-28T15:12:08.004Z,86.20
2023-01-28T15:14:34.927Z,86.50
2023-01-28T15:17:02.297Z,86.50
2023-01-28T15:19:32.356Z,86.10
2023-01-28T15:22:02.886Z,86.20
2023-01-28T15:24:31.820Z,86.00
2023-01-28T15:26:58.611Z,86.10
2023-01-28T15:29:31.656Z,86.40
2023-01-28T15:31:59.292Z,86.10
2023-01-28T15:34:32.392Z,86.60
2023-01-28T15:37:00.467Z,86.40
2023-01-28T15:39:29.383Z,86.80
2023-01-28T15:42:05.523Z,86.70
2023-01-28T15:44:38.837Z,86.60
2023-01-28T15:47:15.804Z,86.70
2023-01-28T15:49:47.308Z,86.50
2023-01-28T15:52:14.898Z,86.50
2023-01-28T15:54:45.702Z,86.60
2023-01-28T15:57:21.020Z,86.60
2023-01-28T15:59:51.036Z,86.80
2023-01-28T16:02:21.693Z,86.70
2023-01-28T16:05:01.904Z,86.50
2023-01-28T16:07:32.190Z,86.60
2023-01-28T16:10:02.099Z,86.60
2023-01-28T16:12:29.568Z,86.70
2023-01-28T16:15:00.143Z,86.70
2023-01-28T16:17:49.217Z,86.40
2023-01-28T16:20:25.015Z,86.30
2023-01-28T16:22:55.102Z,86.60
2023-01-28T16:25:21.815Z,86.70
2023-01-28T16:27:48.886Z,86.60
2023-01-28T16:30:16.883Z,86.50
2023-01-28T16:32:44.212Z,86.60
2023-01-28T16:35:21.803Z,86.40
2023-01-28T16:37:49.387Z,86.50
2023-01-28T16:40:19.258Z,86.50
2023-01-28T16:42:48.563Z,86.30
2023-01-28T16:45:22.252Z,85.80
2023-01-28T16:47:49.283Z,85.80
2023-01-28T16:50:16.934Z,85.80
2023-01-28T16:52:46.061Z,85.80
2023-01-28T16:55:15.132Z,85.70
2023-01-28T16:57:43.242Z,85.60
2023-01-28T17:00:18.351Z,85.40
2023-01-28T17:02:45.493Z,84.90
2023-01-28T17:05:12.972Z,85.40
2023-01-28T17:07:39.742Z,85.20
2023-01-28T17:10:07.016Z,85.60
2023-01-28T17:12:33.838Z,85.20
2023-01-28T17:15:00.591Z,85.30
2023-01-28T17:17:27.856Z,85.60
2023-01-28T17:19:54.618Z,85.50
2023-01-28T17:22:21.350Z,85.60
2023-01-28T17:24:48.087Z,85.80
2023-01-28T17:27:14.800Z,85.70
2023-01-28T17:29:41.648Z,85.80
2023-01-28T17:32:08.597Z,86.40
2023-01-28T17:34:35.373Z,87.00
2023-01-28T17:37:05.151Z,87.10
2023-01-28T17:39:31.911Z,87.10
2023-01-28T17:41:58.700Z,87.60
2023-01-28T17:44:25.526Z,87.30
2023-01-28T17:46:54.424Z,87.60
2023-01-28T17:49:21.279Z,87.60
2023-01-28T17:51:48.786Z,87.10
2023-01-28T17:54:16.876Z,86.90
2023-01-28T17:56:44.644Z,86.70
2023-01-28T17:59:11.663Z,86.50
2023-01-28T18:01:38.390Z,86.10
2023-01-28T18:04:05.582Z,86.40
2023-01-28T18:06:37.503Z,86.60
2023-01-28T18:09:05.087Z,86.80
2023-01-28T18:11:33.017Z,87.20
2023-01-28T18:13:59.763Z,87.80
2023-01-28T18:16:26.684Z,88.30
2023-01-28T18:18:53.431Z,88.40
2023-01-28T18:21:46.514Z,88.50
2023-01-28T18:24:18.835Z,88.70
2023-01-28T18:26:45.644Z,88.70
2023-01-28T18:29:16.958Z,88.80
2023-01-28T18:31:46.551Z,88.70
2023-01-28T18:34:14.394Z,88.60
2023-01-28T18:36:42.119Z,88.60
2023-01-28T18:39:14.439Z,88.70
2023-01-28T18:41:41.409Z,88.40
2023-01-28T18:44:09.639Z,88.30
2023-01-28T18:46:36.472Z,88.30
2023-01-28T18:49:03.572Z,87.80
2023-01-28T18:51:31.029Z,87.80
2023-01-28T18:53:59.662Z,87.60
2023-01-28T18:56:28.604Z,87.90
2023-01-28T18:59:00.275Z,87.90
2023-01-28T19:01:27.933Z,87.70
2023-01-28T19:03:55.950Z,87.50
2023-01-28T19:06:23.597Z,87.50
2023-01-28T19:08:55.746Z,87.40
2023-01-28T19:11:24.717Z,86.90
2023-01-28T19:13:51.760Z,87.00
2023-01-28T19:16:19.772Z,87.30
2023-01-28T19:18:53.746Z,87.20
2023-01-28T19:21:21.479Z,87.90
2023-01-28T19:23:53.028Z,88.10
2023-01-28T19:26:21.375Z,88.30
2023-01-28T19:28:51.556Z,88.60
2023-01-28T19:31:20.639Z,87.20
2023-01-28T19:33:48.407Z,86.80
2023-01-28T19:36:15.669Z,86.90
2023-01-28T19:38:42.431Z,86.80
2023-01-28T19:41:09.237Z,86.10
2023-01-28T19:43:37.363Z,86.70
2023-01-28T19:46:06.099Z,86.90
2023-01-28T19:48:33.771Z,86.30
2023-01-28T19:51:09.162Z,85.90
2023-01-28T19:53:37.299Z,85.90
2023-01-28T19:56:15.189Z,86.20
2023-01-28T19:58:44.171Z,85.80
2023-01-28T20:01:31.393Z,85.50
2023-01-28T20:04:00.069Z,85.30
2023-01-28T20:06:28.529Z,85.80
2023-01-28T20:08:58.161Z,86.40
2023-01-28T20:11:25.348Z,86.60
2023-01-28T20:13:52.730Z,87.10
2023-01-28T20:16:28.590Z,86.30
2023-01-28T20:18:58.064Z,86.30
2023-01-28T20:21:29.748Z,86.60
2023-01-28T20:23:58.800Z,85.70
2023-01-28T20:26:31.752Z,85.50
2023-01-28T20:29:03.723Z,85.60
2023-01-28T20:31:30.799Z,85.80
2023-01-28T20:33:57.737Z,86.10
2023-01-28T20:36:27.062Z,85.80
2023-01-28T20:38:56.496Z,85.50
2023-01-28T20:41:27.121Z,85.80
2023-01-28T20:43:54.874Z,85.50
2023-01-28T20:46:27.820Z,85.00
2023-01-28T20:48:56.406Z,84.90
2023-01-28T20:51:28.789Z,85.00
2023-01-28T20:53:57.219Z,85.10
2023-01-28T20:56:31.025Z,85.10
2023-01-28T20:59:04.618Z,84.70
2023-01-28T21:01:34.685Z,85.10
2023-01-28T21:04:02.237Z,85.00
2023-01-28T21:06:29.573Z,85.00
2023-01-28T21:08:57.134Z,85.20
2023-01-28T21:11:25.851Z,85.20
2023-01-28T21:13:53.270Z,84.60
2023-01-28T21:16:20.372Z,84.90
2023-01-28T21:18:47.749Z,85.00
2023-01-28T21:21:20.986Z,85.20
2023-01-28T21:23:47.702Z,85.10
2023-01-28T21:26:15.588Z,85.10
2023-01-28T21:28:43.328Z,85.30
2023-01-28T21:31:17.581Z,85.00
2023-01-28T21:33:49.455Z,84.90
2023-01-28T21:36:17.315Z,85.30
2023-01-28T21:38:45.103Z,85.60
2023-01-28T21:41:11.837Z,85.60
2023-01-28T21:43:38.672Z,85.60
2023-01-28T21:46:05.987Z,85.40
2023-01-28T21:48:32.871Z,85.80
2023-01-28T21:51:27.283Z,85.20
2023-01-28T21:53:54.403Z,85.70
2023-01-28T21:56:21.752Z,84.80
2023-01-28T21:59:07.412Z,85.10
2023-01-28T22:01:34.794Z,85.10
2023-01-28T22:04:01.686Z,84.90
2023-01-28T22:06:28.795Z,85.10
2023-01-28T22:08:55.549Z,84.80
2023-01-28T22:11:22.778Z,84.80
2023-01-28T22:13:49.608Z,84.30
2023-01-28T22:16:18.397Z,84.60
2023-01-28T22:18:46.677Z,84.40
2023-01-28T22:21:13.862Z,84.50
2023-01-28T22:23:40.627Z,85.10
2023-01-28T22:26:08.351Z,84.20
2023-01-28T22:28:36.390Z,84.60
2023-01-28T22:31:15.041Z,84.70
2023-01-28T22:33:43.559Z,84.60
2023-01-28T22:36:15.829Z,84.70
2023-01-28T22:38:44.934Z,84.80
2023-01-28T22:41:24.701Z,84.40
2023-01-28T22:43:52.033Z,85.10
2023-01-28T22:46:20.687Z,85.40
2023-01-28T22:48:48.371Z,84.90
2023-01-28T22:51:24.401Z,84.90
2023-01-28T22:53:52.178Z,83.90
2023-01-28T22:56:21.276Z,84.30
2023-01-28T22:58:49.307Z,83.80
2023-01-28T23:01:17.472Z,84.20
2023-01-28T23:03:49.638Z,84.20
2023-01-28T23:06:18.346Z,84.30
2023-01-28T23:08:46.217Z,84.40
2023-01-28T23:11:24.914Z,83.80
2023-01-28T23:14:20.801Z,84.80
2023-01-28T23:17:07.361Z,84.50
2023-01-28T23:19:53.067Z,83.80
2023-01-28T23:22:46.154Z,84.20
2023-01-28T23:25:13.279Z,83.90
2023-01-28T23:27:40.030Z,83.70
2023-01-28T23:30:10.605Z,82.90
2023-01-28T23:32:46.711Z,82.70
2023-01-28T23:35:13.761Z,82.00
2023-01-28T23:37:41.505Z,81.60
2023-01-28T23:40:11.405Z,81.40
2023-01-28T23:42:38.453Z,81.30
2023-01-28T23:45:06.363Z,81.40
2023-01-28T23:47:33.179Z,81.40
2023-01-28T23:50:00.478Z,81.40
2023-01-28T23:52:27.262Z,80.50
2023-01-28T23:54:53.992Z,80.40
2023-01-28T23:57:20.775Z,81.30
2023-01-28T23:59:47.514Z,81.70
